sensor_id;sensor_type;location;lat;lon;timestamp;pressure;altitude;pressure_sealevel;temperature;humidity
33075;BME280;19433;51.292;6.868;2023-04-10T00:02:14;100994.53;;;6.85;74.76
33075;BME280;19433;51.292;6.868;2023-04-10T00:04:39;101001.28;;;7.15;73.57
33075;BME280;19433;51.292;6.868;2023-04-10T00:07:05;100997.16;;;7.19;72.81
33075;BME280;19433;51.292;6.868;2023-04-10T00:09:30;100983.94;;;7.22;72.59
33075;BME280;19433;51.292;6.868;2023-04-10T00:11:56;100987.03;;;7.27;72.18
33075;BME280;19433;51.292;6.868;2023-04-10T00:14:21;100989.44;;;7.30;71.97
33075;BME280;19433;51.292;6.868;2023-04-10T00:16:49;100982.75;;;7.41;71.26
33075;BME280;19433;51.292;6.868;2023-04-10T00:19:14;100981.69;;;7.34;71.65
33075;BME280;19433;51.292;6.868;2023-04-10T00:21:40;100989.28;;;7.40;71.29
33075;BME280;19433;51.292;6.868;2023-04-10T00:24:06;100980.69;;;7.43;71.13
33075;BME280;19433;51.292;6.868;2023-04-10T00:26:31;100974.31;;;7.51;70.63
33075;BME280;19433;51.292;6.868;2023-04-10T00:28:56;100970.88;;;7.40;71.14
33075;BME280;19433;51.292;6.868;2023-04-10T00:31:22;100970.22;;;7.47;70.97
33075;BME280;19433;51.292;6.868;2023-04-10T00:33:47;100962.47;;;7.42;71.20
33075;BME280;19433;51.292;6.868;2023-04-10T00:36:12;100955.75;;;7.36;71.50
33075;BME280;19433;51.292;6.868;2023-04-10T00:38:38;100970.53;;;7.35;71.51
33075;BME280;19433;51.292;6.868;2023-04-10T00:41:03;100956.97;;;7.26;72.55
33075;BME280;19433;51.292;6.868;2023-04-10T00:43:29;100952.50;;;7.41;71.67
33075;BME280;19433;51.292;6.868;2023-04-10T00:45:56;100958.34;;;7.30;72.04
33075;BME280;19433;51.292;6.868;2023-04-10T00:48:22;100949.06;;;7.23;72.75
33075;BME280;19433;51.292;6.868;2023-04-10T00:50:47;100947.69;;;7.27;72.08
33075;BME280;19433;51.292;6.868;2023-04-10T00:53:12;100943.59;;;7.31;71.97
33075;BME280;19433;51.292;6.868;2023-04-10T00:55:38;100950.78;;;7.16;72.84
33075;BME280;19433;51.292;6.868;2023-04-10T00:58:03;100942.56;;;7.32;72.41
33075;BME280;19433;51.292;6.868;2023-04-10T01:00:28;100945.81;;;7.11;73.34
33075;BME280;19433;51.292;6.868;2023-04-10T01:02:54;100951.81;;;7.15;73.27
33075;BME280;19433;51.292;6.868;2023-04-10T01:05:21;100939.28;;;7.12;73.26
33075;BME280;19433;51.292;6.868;2023-04-10T01:08:16;100937.03;;;6.99;73.92
33075;BME280;19433;51.292;6.868;2023-04-10T01:10:58;100942.00;;;6.96;74.45
33075;BME280;19433;51.292;6.868;2023-04-10T01:13:36;100932.41;;;7.08;73.54
33075;BME280;19433;51.292;6.868;2023-04-10T01:16:21;100925.00;;;6.92;74.47
33075;BME280;19433;51.292;6.868;2023-04-10T01:18:56;100935.34;;;7.15;73.51
33075;BME280;19433;51.292;6.868;2023-04-10T01:21:25;100940.13;;;7.13;73.71
33075;BME280;19433;51.292;6.868;2023-04-10T01:27:11;100920.41;;;7.17;73.21
33075;BME280;19433;51.292;6.868;2023-04-10T01:29:46;100927.59;;;7.10;73.23
33075;BME280;19433;51.292;6.868;2023-04-10T01:32:19;100922.09;;;7.18;73.14
33075;BME280;19433;51.292;6.868;2023-04-10T01:34:49;100914.91;;;7.01;74.46
33075;BME280;19433;51.292;6.868;2023-04-10T01:37:26;100906.47;;;7.11;74.32
33075;BME280;19433;51.292;6.868;2023-04-10T01:39:58;100898.25;;;7.11;73.59
33075;BME280;19433;51.292;6.868;2023-04-10T01:42:30;100886.38;;;6.94;74.53
33075;BME280;19433;51.292;6.868;2023-04-10T01:44:57;100893.25;;;7.06;74.56
33075;BME280;19433;51.292;6.868;2023-04-10T01:47:24;100897.91;;;7.14;74.16
33075;BME280;19433;51.292;6.868;2023-04-10T01:49:51;100893.59;;;7.19;73.86
33075;BME280;19433;51.292;6.868;2023-04-10T01:52:17;100891.19;;;7.24;73.65
33075;BME280;19433;51.292;6.868;2023-04-10T01:54:43;100878.13;;;7.18;74.04
33075;BME280;19433;51.292;6.868;2023-04-10T01:57:12;100890.50;;;7.06;75.09
33075;BME280;19433;51.292;6.868;2023-04-10T01:59:39;100890.16;;;7.25;74.04
33075;BME280;19433;51.292;6.868;2023-04-10T02:02:05;100894.63;;;7.10;74.72
33075;BME280;19433;51.292;6.868;2023-04-10T02:04:32;100895.50;;;7.11;74.84
33075;BME280;19433;51.292;6.868;2023-04-10T02:07:09;100882.44;;;7.13;74.83
33075;BME280;19433;51.292;6.868;2023-04-10T02:09:59;100885.53;;;7.10;75.15
33075;BME280;19433;51.292;6.868;2023-04-10T02:12:30;100860.63;;;6.95;75.30
33075;BME280;19433;51.292;6.868;2023-04-10T02:14:59;100877.78;;;6.81;76.69
33075;BME280;19433;51.292;6.868;2023-04-10T02:17:28;100865.78;;;6.82;77.18
33075;BME280;19433;51.292;6.868;2023-04-10T02:19:54;100867.16;;;6.94;76.47
33075;BME280;19433;51.292;6.868;2023-04-10T02:22:22;100853.75;;;6.75;77.12
33075;BME280;19433;51.292;6.868;2023-04-10T02:24:48;100873.50;;;6.78;77.06
33075;BME280;19433;51.292;6.868;2023-04-10T02:27:13;100862.31;;;6.63;77.07
33075;BME280;19433;51.292;6.868;2023-04-10T02:29:38;100879.34;;;6.83;77.08
33075;BME280;19433;51.292;6.868;2023-04-10T02:32:04;100881.41;;;6.81;77.18
33075;BME280;19433;51.292;6.868;2023-04-10T02:34:29;100873.31;;;6.88;76.10
33075;BME280;19433;51.292;6.868;2023-04-10T02:36:55;100881.22;;;6.91;76.17
33075;BME280;19433;51.292;6.868;2023-04-10T02:39:21;100865.25;;;6.70;76.94
33075;BME280;19433;51.292;6.868;2023-04-10T02:41:46;100871.94;;;6.67;76.78
33075;BME280;19433;51.292;6.868;2023-04-10T02:44:12;100853.91;;;6.73;76.74
33075;BME280;19433;51.292;6.868;2023-04-10T02:46:38;100864.56;;;6.92;75.19
33075;BME280;19433;51.292;6.868;2023-04-10T02:49:03;100860.44;;;6.88;75.17
33075;BME280;19433;51.292;6.868;2023-04-10T02:51:28;100878.16;;;6.86;75.33
33075;BME280;19433;51.292;6.868;2023-04-10T02:53:54;100868.53;;;6.90;74.90
33075;BME280;19433;51.292;6.868;2023-04-10T02:56:19;100870.75;;;6.94;74.23
33075;BME280;19433;51.292;6.868;2023-04-10T02:58:44;100866.13;;;6.95;74.11
33075;BME280;19433;51.292;6.868;2023-04-10T03:01:12;100865.09;;;6.96;74.04
33075;BME280;19433;51.292;6.868;2023-04-10T03:03:37;100865.63;;;7.16;72.90
33075;BME280;19433;51.292;6.868;2023-04-10T03:06:03;100855.97;;;7.03;73.26
33075;BME280;19433;51.292;6.868;2023-04-10T03:08:28;100863.91;;;6.98;73.63
33075;BME280;19433;51.292;6.868;2023-04-10T03:10:54;100855.31;;;6.93;74.22
33075;BME280;19433;51.292;6.868;2023-04-10T03:13:19;100853.44;;;7.02;73.34
33075;BME280;19433;51.292;6.868;2023-04-10T03:15:45;100860.13;;;7.16;72.50
33075;BME280;19433;51.292;6.868;2023-04-10T03:18:11;100848.28;;;7.15;72.38
33075;BME280;19433;51.292;6.868;2023-04-10T03:20:36;100827.50;;;7.13;72.17
33075;BME280;19433;51.292;6.868;2023-04-10T03:23:04;100829.72;;;7.17;72.84
33075;BME280;19433;51.292;6.868;2023-04-10T03:25:30;100826.78;;;7.27;72.64
33075;BME280;19433;51.292;6.868;2023-04-10T03:27:56;100821.13;;;7.28;71.27
33075;BME280;19433;51.292;6.868;2023-04-10T03:30:21;100820.91;;;7.38;70.44
33075;BME280;19433;51.292;6.868;2023-04-10T03:32:47;100811.63;;;7.47;70.30
33075;BME280;19433;51.292;6.868;2023-04-10T03:35:12;100807.50;;;7.43;69.91
33075;BME280;19433;51.292;6.868;2023-04-10T03:37:37;100808.03;;;7.47;69.94
33075;BME280;19433;51.292;6.868;2023-04-10T03:40:07;100800.84;;;7.29;70.43
33075;BME280;19433;51.292;6.868;2023-04-10T03:42:33;100805.31;;;7.30;70.89
33075;BME280;19433;51.292;6.868;2023-04-10T03:44:58;100797.25;;;7.29;70.43
33075;BME280;19433;51.292;6.868;2023-04-10T03:47:25;100792.25;;;7.32;69.32
33075;BME280;19433;51.292;6.868;2023-04-10T03:49:50;100794.63;;;7.35;69.67
33075;BME280;19433;51.292;6.868;2023-04-10T03:52:15;100809.22;;;7.36;70.06
33075;BME280;19433;51.292;6.868;2023-04-10T03:54:41;100804.97;;;7.25;70.01
33075;BME280;19433;51.292;6.868;2023-04-10T03:57:06;100802.34;;;7.40;69.51
33075;BME280;19433;51.292;6.868;2023-04-10T03:59:32;100790.16;;;7.34;69.28
33075;BME280;19433;51.292;6.868;2023-04-10T04:01:57;100800.97;;;7.36;68.95
33075;BME280;19433;51.292;6.868;2023-04-10T04:04:22;100800.50;;;7.32;69.09
33075;BME280;19433;51.292;6.868;2023-04-10T04:06:47;100793.78;;;7.35;69.53
33075;BME280;19433;51.292;6.868;2023-04-10T04:09:13;100802.06;;;7.19;70.64
33075;BME280;19433;51.292;6.868;2023-04-10T04:11:38;100796.56;;;7.27;69.85
33075;BME280;19433;51.292;6.868;2023-04-10T04:14:03;100801.72;;;7.30;69.60
33075;BME280;19433;51.292;6.868;2023-04-10T04:16:29;100796.88;;;7.40;68.67
33075;BME280;19433;51.292;6.868;2023-04-10T04:18:54;100787.28;;;7.20;69.41
33075;BME280;19433;51.292;6.868;2023-04-10T04:21:19;100799.81;;;7.22;69.41
33075;BME280;19433;51.292;6.868;2023-04-10T04:23:45;100791.22;;;7.25;69.13
33075;BME280;19433;51.292;6.868;2023-04-10T04:26:10;100786.25;;;7.21;68.96
33075;BME280;19433;51.292;6.868;2023-04-10T04:28:35;100788.31;;;7.19;69.30
33075;BME280;19433;51.292;6.868;2023-04-10T04:31:01;100793.47;;;7.30;69.10
33075;BME280;19433;51.292;6.868;2023-04-10T04:33:26;100772.00;;;7.25;68.55
33075;BME280;19433;51.292;6.868;2023-04-10T04:35:52;100778.00;;;7.29;68.44
33075;BME280;19433;51.292;6.868;2023-04-10T04:38:17;100772.34;;;7.22;68.92
33075;BME280;19433;51.292;6.868;2023-04-10T04:40:44;100787.09;;;7.21;69.61
33075;BME280;19433;51.292;6.868;2023-04-10T04:43:09;100781.78;;;7.20;69.68
33075;BME280;19433;51.292;6.868;2023-04-10T04:45:35;100778.13;;;7.35;68.42
33075;BME280;19433;51.292;6.868;2023-04-10T04:48:00;100778.69;;;7.31;68.91
33075;BME280;19433;51.292;6.868;2023-04-10T04:50:25;100769.94;;;7.27;69.22
33075;BME280;19433;51.292;6.868;2023-04-10T04:52:51;100772.38;;;7.14;69.59
33075;BME280;19433;51.292;6.868;2023-04-10T04:55:16;100776.88;;;6.99;70.56
33075;BME280;19433;51.292;6.868;2023-04-10T04:57:41;100772.72;;;7.11;69.92
33075;BME280;19433;51.292;6.868;2023-04-10T05:00:07;100781.59;;;7.29;68.98
33075;BME280;19433;51.292;6.868;2023-04-10T05:02:32;100782.94;;;7.33;68.87
33075;BME280;19433;51.292;6.868;2023-04-10T05:04:58;100784.16;;;7.39;68.98
33075;BME280;19433;51.292;6.868;2023-04-10T05:07:23;100781.06;;;7.34;68.80
33075;BME280;19433;51.292;6.868;2023-04-10T05:09:48;100784.66;;;7.43;68.49
33075;BME280;19433;51.292;6.868;2023-04-10T05:12:14;100778.31;;;7.42;68.21
33075;BME280;19433;51.292;6.868;2023-04-10T05:14:39;100781.00;;;7.50;68.16
33075;BME280;19433;51.292;6.868;2023-04-10T05:17:05;100778.44;;;7.57;68.32
33075;BME280;19433;51.292;6.868;2023-04-10T05:19:30;100780.84;;;7.52;68.23
33075;BME280;19433;51.292;6.868;2023-04-10T05:21:55;100771.22;;;7.56;67.99
33075;BME280;19433;51.292;6.868;2023-04-10T05:24:21;100779.81;;;7.53;68.47
33075;BME280;19433;51.292;6.868;2023-04-10T05:26:46;100780.31;;;7.56;68.22
33075;BME280;19433;51.292;6.868;2023-04-10T05:29:12;100784.03;;;7.71;67.73
33075;BME280;19433;51.292;6.868;2023-04-10T05:31:37;100779.03;;;7.75;67.27
33075;BME280;19433;51.292;6.868;2023-04-10T05:34:02;100791.19;;;7.89;67.10
33075;BME280;19433;51.292;6.868;2023-04-10T05:36:28;100782.88;;;7.97;66.41
33075;BME280;19433;51.292;6.868;2023-04-10T05:38:53;100791.97;;;7.97;65.97
33075;BME280;19433;51.292;6.868;2023-04-10T05:41:18;100793.16;;;8.03;66.21
33075;BME280;19433;51.292;6.868;2023-04-10T05:43:44;100786.56;;;8.12;65.50
33075;BME280;19433;51.292;6.868;2023-04-10T05:46:09;100797.84;;;8.25;65.07
33075;BME280;19433;51.292;6.868;2023-04-10T05:48:35;100795.16;;;8.17;64.94
33075;BME280;19433;51.292;6.868;2023-04-10T05:51:01;100793.19;;;8.26;65.22
33075;BME280;19433;51.292;6.868;2023-04-10T05:53:30;100785.44;;;8.29;64.01
33075;BME280;19433;51.292;6.868;2023-04-10T05:55:56;100794.22;;;8.33;65.09
33075;BME280;19433;51.292;6.868;2023-04-10T05:58:21;100777.59;;;8.49;63.48
33075;BME280;19433;51.292;6.868;2023-04-10T06:00:47;100779.66;;;8.47;63.17
33075;BME280;19433;51.292;6.868;2023-04-10T06:03:12;100787.13;;;8.61;62.49
33075;BME280;19433;51.292;6.868;2023-04-10T06:05:37;100778.19;;;8.59;62.72
33075;BME280;19433;51.292;6.868;2023-04-10T06:08:03;100783.28;;;8.48;63.35
33075;BME280;19433;51.292;6.868;2023-04-10T06:10:28;100775.63;;;8.58;62.39
33075;BME280;19433;51.292;6.868;2023-04-10T06:12:54;100780.13;;;8.73;61.48
33075;BME280;19433;51.292;6.868;2023-04-10T06:15:20;100773.72;;;8.81;61.46
33075;BME280;19433;51.292;6.868;2023-04-10T06:17:45;100766.72;;;8.93;60.64
33075;BME280;19433;51.292;6.868;2023-04-10T06:20:11;100767.69;;;9.00;60.31
33075;BME280;19433;51.292;6.868;2023-04-10T06:22:36;100766.06;;;9.06;59.94
33075;BME280;19433;51.292;6.868;2023-04-10T06:25:01;100765.78;;;9.01;59.82
33075;BME280;19433;51.292;6.868;2023-04-10T06:27:27;100753.94;;;9.15;59.29
33075;BME280;19433;51.292;6.868;2023-04-10T06:29:52;100758.56;;;9.00;59.66
33075;BME280;19433;51.292;6.868;2023-04-10T06:32:18;100771.69;;;9.12;59.65
33075;BME280;19433;51.292;6.868;2023-04-10T06:34:43;100763.34;;;9.21;59.52
33075;BME280;19433;51.292;6.868;2023-04-10T06:37:08;100771.53;;;9.43;58.22
33075;BME280;19433;51.292;6.868;2023-04-10T06:39:34;100775.03;;;9.67;57.63
33075;BME280;19433;51.292;6.868;2023-04-10T06:41:59;100771.53;;;10.09;56.16
33075;BME280;19433;51.292;6.868;2023-04-10T06:44:25;100788.28;;;11.28;52.33
33075;BME280;19433;51.292;6.868;2023-04-10T06:46:50;100768.63;;;12.33;49.19
33075;BME280;19433;51.292;6.868;2023-04-10T06:49:15;100773.44;;;13.25;45.54
33075;BME280;19433;51.292;6.868;2023-04-10T06:51:41;100768.72;;;13.13;46.03
33075;BME280;19433;51.292;6.868;2023-04-10T06:54:06;100785.53;;;13.70;44.66
33075;BME280;19433;51.292;6.868;2023-04-10T06:56:31;100773.91;;;14.00;43.57
33075;BME280;19433;51.292;6.868;2023-04-10T06:58:57;100771.44;;;14.68;42.35
33075;BME280;19433;51.292;6.868;2023-04-10T07:01:22;100774.78;;;15.58;40.50
33075;BME280;19433;51.292;6.868;2023-04-10T07:03:47;100777.31;;;15.59;39.97
33075;BME280;19433;51.292;6.868;2023-04-10T07:06:12;100762.03;;;14.24;42.06
33075;BME280;19433;51.292;6.868;2023-04-10T07:08:38;100759.53;;;13.58;43.21
33075;BME280;19433;51.292;6.868;2023-04-10T07:11:03;100758.22;;;13.61;43.60
33075;BME280;19433;51.292;6.868;2023-04-10T07:13:28;100768.81;;;14.41;42.19
33075;BME280;19433;51.292;6.868;2023-04-10T07:15:54;100766.09;;;15.23;40.46
33075;BME280;19433;51.292;6.868;2023-04-10T07:18:19;100770.28;;;15.07;40.59
33075;BME280;19433;51.292;6.868;2023-04-10T07:20:45;100755.78;;;15.73;38.70
33075;BME280;19433;51.292;6.868;2023-04-10T07:23:10;100745.13;;;15.20;39.57
33075;BME280;19433;51.292;6.868;2023-04-10T07:25:36;100739.53;;;15.45;39.61
33075;BME280;19433;51.292;6.868;2023-04-10T07:28:01;100747.72;;;15.40;39.03
33075;BME280;19433;51.292;6.868;2023-04-10T07:30:26;100747.44;;;14.42;40.13
33075;BME280;19433;51.292;6.868;2023-04-10T07:32:52;100748.13;;;14.24;41.35
33075;BME280;19433;51.292;6.868;2023-04-10T07:35:17;100754.09;;;14.34;40.73
33075;BME280;19433;51.292;6.868;2023-04-10T07:37:42;100751.91;;;13.92;41.84
33075;BME280;19433;51.292;6.868;2023-04-10T07:40:08;100734.50;;;13.71;42.52
33075;BME280;19433;51.292;6.868;2023-04-10T07:42:34;100749.88;;;13.61;42.46
33075;BME280;19433;51.292;6.868;2023-04-10T07:45:00;100750.34;;;13.58;42.76
33075;BME280;19433;51.292;6.868;2023-04-10T07:47:25;100735.19;;;13.54;42.42
33075;BME280;19433;51.292;6.868;2023-04-10T07:49:51;100726.84;;;14.12;41.29
33075;BME280;19433;51.292;6.868;2023-04-10T07:52:16;100725.97;;;14.11;41.25
33075;BME280;19433;51.292;6.868;2023-04-10T07:54:41;100719.47;;;14.30;40.94
33075;BME280;19433;51.292;6.868;2023-04-10T07:57:07;100714.41;;;14.59;39.92
33075;BME280;19433;51.292;6.868;2023-04-10T07:59:32;100710.69;;;14.96;39.75
33075;BME280;19433;51.292;6.868;2023-04-10T08:01:57;100714.41;;;15.52;38.48
33075;BME280;19433;51.292;6.868;2023-04-10T08:04:23;100708.34;;;16.28;37.76
33075;BME280;19433;51.292;6.868;2023-04-10T08:06:48;100710.53;;;18.36;34.15
33075;BME280;19433;51.292;6.868;2023-04-10T08:09:14;100718.91;;;19.59;31.91
33075;BME280;19433;51.292;6.868;2023-04-10T08:11:39;100714.25;;;19.15;31.93
33075;BME280;19433;51.292;6.868;2023-04-10T08:14:05;100710.13;;;19.94;30.87
33075;BME280;19433;51.292;6.868;2023-04-10T08:16:32;100708.78;;;19.42;31.79
33075;BME280;19433;51.292;6.868;2023-04-10T08:18:59;100699.34;;;19.64;31.55
33075;BME280;19433;51.292;6.868;2023-04-10T08:21:25;100689.97;;;18.87;31.80
33075;BME280;19433;51.292;6.868;2023-04-10T08:23:58;100700.97;;;18.32;33.13
33075;BME280;19433;51.292;6.868;2023-04-10T08:26:24;100699.13;;;19.32;31.94
33075;BME280;19433;51.292;6.868;2023-04-10T08:28:52;100699.28;;;19.59;31.01
33075;BME280;19433;51.292;6.868;2023-04-10T08:31:21;100699.03;;;18.60;33.07
33075;BME280;19433;51.292;6.868;2023-04-10T08:33:47;100694.25;;;19.06;32.44
33075;BME280;19433;51.292;6.868;2023-04-10T08:36:13;100687.94;;;19.16;32.32
33075;BME280;19433;51.292;6.868;2023-04-10T08:38:43;100683.88;;;18.73;32.51
33075;BME280;19433;51.292;6.868;2023-04-10T08:41:10;100685.41;;;18.52;32.74
33075;BME280;19433;51.292;6.868;2023-04-10T08:43:36;100675.13;;;19.03;32.36
33075;BME280;19433;51.292;6.868;2023-04-10T08:46:01;100674.84;;;17.98;32.48
33075;BME280;19433;51.292;6.868;2023-04-10T08:48:34;100675.03;;;18.65;32.19
33075;BME280;19433;51.292;6.868;2023-04-10T08:51:03;100680.44;;;18.26;32.60
33075;BME280;19433;51.292;6.868;2023-04-10T08:53:30;100665.44;;;17.64;33.74
33075;BME280;19433;51.292;6.868;2023-04-10T08:56:00;100648.59;;;16.77;34.77
33075;BME280;19433;51.292;6.868;2023-04-10T08:58:28;100654.28;;;16.70;35.19
33075;BME280;19433;51.292;6.868;2023-04-10T09:00:53;100635.34;;;16.19;35.60
33075;BME280;19433;51.292;6.868;2023-04-10T09:03:19;100645.44;;;16.32;35.76
33075;BME280;19433;51.292;6.868;2023-04-10T09:05:44;100651.66;;;16.04;36.21
33075;BME280;19433;51.292;6.868;2023-04-10T09:08:09;100635.22;;;16.26;36.30
33075;BME280;19433;51.292;6.868;2023-04-10T09:10:36;100638.22;;;15.82;36.16
33075;BME280;19433;51.292;6.868;2023-04-10T09:13:01;100633.03;;;15.86;36.57
33075;BME280;19433;51.292;6.868;2023-04-10T09:15:26;100633.06;;;17.16;35.59
33075;BME280;19433;51.292;6.868;2023-04-10T09:17:55;100638.69;;;18.08;32.86
33075;BME280;19433;51.292;6.868;2023-04-10T09:20:22;100647.72;;;19.05;31.11
33075;BME280;19433;51.292;6.868;2023-04-10T09:22:48;100655.41;;;20.14;29.23
33075;BME280;19433;51.292;6.868;2023-04-10T09:25:37;100648.03;;;21.25;28.94
33075;BME280;19433;51.292;6.868;2023-04-10T09:28:07;100667.63;;;21.52;27.66
33075;BME280;19433;51.292;6.868;2023-04-10T09:32:59;100655.34;;;19.65;30.45
33075;BME280;19433;51.292;6.868;2023-04-10T09:35:34;100658.16;;;19.10;30.82
33075;BME280;19433;51.292;6.868;2023-04-10T09:38:00;100654.78;;;19.63;30.76
33075;BME280;19433;51.292;6.868;2023-04-10T09:40:26;100663.50;;;19.11;30.62
33075;BME280;19433;51.292;6.868;2023-04-10T09:42:52;100649.78;;;18.76;31.37
33075;BME280;19433;51.292;6.868;2023-04-10T09:45:18;100630.38;;;18.41;31.55
33075;BME280;19433;51.292;6.868;2023-04-10T09:48:01;100630.84;;;18.21;31.96
33075;BME280;19433;51.292;6.868;2023-04-10T09:50:38;100639.63;;;18.42;31.93
33075;BME280;19433;51.292;6.868;2023-04-10T09:53:05;100621.00;;;17.90;32.24
33075;BME280;19433;51.292;6.868;2023-04-10T09:55:33;100628.13;;;17.58;32.49
33075;BME280;19433;51.292;6.868;2023-04-10T09:57:59;100615.72;;;18.06;32.23
33075;BME280;19433;51.292;6.868;2023-04-10T10:00:25;100607.84;;;18.48;31.80
33075;BME280;19433;51.292;6.868;2023-04-10T10:02:51;100620.16;;;18.18;31.99
33075;BME280;19433;51.292;6.868;2023-04-10T10:05:18;100610.34;;;18.16;31.63
33075;BME280;19433;51.292;6.868;2023-04-10T10:07:44;100598.22;;;18.27;31.66
33075;BME280;19433;51.292;6.868;2023-04-10T10:10:11;100603.06;;;18.15;31.98
33075;BME280;19433;51.292;6.868;2023-04-10T10:12:50;100606.44;;;17.37;32.47
33075;BME280;19433;51.292;6.868;2023-04-10T10:18:26;100593.13;;;19.46;28.97
33075;BME280;19433;51.292;6.868;2023-04-10T10:20:56;100577.31;;;20.96;27.39
33075;BME280;19433;51.292;6.868;2023-04-10T10:23:22;100585.97;;;20.90;27.58
33075;BME280;19433;51.292;6.868;2023-04-10T10:25:49;100580.31;;;21.22;27.66
33075;BME280;19433;51.292;6.868;2023-04-10T10:28:15;100578.56;;;21.63;26.82
33075;BME280;19433;51.292;6.868;2023-04-10T10:30:42;100571.47;;;21.03;26.49
33075;BME280;19433;51.292;6.868;2023-04-10T10:33:09;100568.13;;;21.58;26.51
33075;BME280;19433;51.292;6.868;2023-04-10T10:35:36;100569.03;;;21.79;25.99
33075;BME280;19433;51.292;6.868;2023-04-10T10:38:04;100566.16;;;21.54;25.93
33075;BME280;19433;51.292;6.868;2023-04-10T10:41:00;100544.22;;;21.03;26.54
33075;BME280;19433;51.292;6.868;2023-04-10T10:46:16;100527.34;;;19.97;28.97
33075;BME280;19433;51.292;6.868;2023-04-10T10:48:58;100516.28;;;19.86;28.78
33075;BME280;19433;51.292;6.868;2023-04-10T10:51:33;100503.91;;;18.94;29.36
33075;BME280;19433;51.292;6.868;2023-04-10T10:56:51;100489.34;;;19.36;29.39
33075;BME280;19433;51.292;6.868;2023-04-10T10:59:16;100483.78;;;19.41;29.31
33075;BME280;19433;51.292;6.868;2023-04-10T11:02:17;100486.41;;;19.26;30.08
33075;BME280;19433;51.292;6.868;2023-04-10T11:04:44;100486.88;;;19.18;29.28
33075;BME280;19433;51.292;6.868;2023-04-10T11:07:10;100483.44;;;18.72;29.98
33075;BME280;19433;51.292;6.868;2023-04-10T11:09:52;100478.88;;;19.05;29.65
33075;BME280;19433;51.292;6.868;2023-04-10T11:12:24;100465.94;;;19.25;29.45
33075;BME280;19433;51.292;6.868;2023-04-10T11:15:10;100450.06;;;18.87;30.12
33075;BME280;19433;51.292;6.868;2023-04-10T11:17:51;100457.97;;;20.20;29.33
33075;BME280;19433;51.292;6.868;2023-04-10T11:20:19;100456.31;;;20.24;28.48
33075;BME280;19433;51.292;6.868;2023-04-10T11:23:10;100465.25;;;20.16;28.55
33075;BME280;19433;51.292;6.868;2023-04-10T11:30:55;100441.28;;;19.01;30.43
33075;BME280;19433;51.292;6.868;2023-04-10T11:33:21;100460.16;;;19.10;29.04
33075;BME280;19433;51.292;6.868;2023-04-10T11:35:46;100436.16;;;18.37;30.61
33075;BME280;19433;51.292;6.868;2023-04-10T11:38:14;100435.94;;;18.05;30.47
33075;BME280;19433;51.292;6.868;2023-04-10T11:40:57;100424.16;;;18.20;30.84
33075;BME280;19433;51.292;6.868;2023-04-10T11:43:23;100415.59;;;17.76;31.02
33075;BME280;19433;51.292;6.868;2023-04-10T11:45:49;100424.00;;;17.76;31.03
33075;BME280;19433;51.292;6.868;2023-04-10T11:48:14;100415.09;;;17.79;31.77
33075;BME280;19433;51.292;6.868;2023-04-10T11:50:41;100407.22;;;17.93;31.53
33075;BME280;19433;51.292;6.868;2023-04-10T11:53:17;100399.88;;;17.70;31.55
33075;BME280;19433;51.292;6.868;2023-04-10T11:55:44;100397.03;;;18.04;31.25
33075;BME280;19433;51.292;6.868;2023-04-10T11:58:22;100395.66;;;18.40;30.58
33075;BME280;19433;51.292;6.868;2023-04-10T12:01:01;100389.78;;;18.80;30.23
33075;BME280;19433;51.292;6.868;2023-04-10T12:03:45;100392.66;;;18.85;30.62
33075;BME280;19433;51.292;6.868;2023-04-10T12:06:12;100387.75;;;19.19;30.30
33075;BME280;19433;51.292;6.868;2023-04-10T12:08:43;100389.53;;;19.30;30.05
33075;BME280;19433;51.292;6.868;2023-04-10T12:11:24;100386.91;;;20.09;28.91
33075;BME280;19433;51.292;6.868;2023-04-10T12:13:52;100371.69;;;19.41;28.66
33075;BME280;19433;51.292;6.868;2023-04-10T12:16:17;100367.47;;;19.12;29.83
33075;BME280;19433;51.292;6.868;2023-04-10T12:18:43;100359.94;;;18.64;30.61
33075;BME280;19433;51.292;6.868;2023-04-10T12:21:11;100355.16;;;18.25;30.12
33075;BME280;19433;51.292;6.868;2023-04-10T12:23:37;100365.81;;;18.45;30.78
33075;BME280;19433;51.292;6.868;2023-04-10T12:28:32;100350.88;;;18.40;30.79
33075;BME280;19433;51.292;6.868;2023-04-10T12:30:57;100348.03;;;18.56;31.09
33075;BME280;19433;51.292;6.868;2023-04-10T12:33:24;100353.19;;;18.65;31.44
33075;BME280;19433;51.292;6.868;2023-04-10T12:35:50;100356.97;;;18.15;30.65
33075;BME280;19433;51.292;6.868;2023-04-10T12:41:05;100337.47;;;17.65;31.91
33075;BME280;19433;51.292;6.868;2023-04-10T12:43:41;100326.28;;;17.81;32.04
33075;BME280;19433;51.292;6.868;2023-04-10T12:46:09;100321.72;;;18.14;31.22
33075;BME280;19433;51.292;6.868;2023-04-10T12:48:46;100307.50;;;18.15;30.75
33075;BME280;19433;51.292;6.868;2023-04-10T12:51:11;100316.41;;;18.34;30.92
33075;BME280;19433;51.292;6.868;2023-04-10T12:53:43;100321.75;;;18.36;31.22
33075;BME280;19433;51.292;6.868;2023-04-10T12:56:09;100311.31;;;18.09;31.26
33075;BME280;19433;51.292;6.868;2023-04-10T12:58:37;100297.03;;;17.72;31.71
33075;BME280;19433;51.292;6.868;2023-04-10T13:01:06;100300.75;;;17.95;31.37
33075;BME280;19433;51.292;6.868;2023-04-10T13:03:33;100294.53;;;18.09;31.40
33075;BME280;19433;51.292;6.868;2023-04-10T13:06:00;100293.56;;;17.99;31.58
33075;BME280;19433;51.292;6.868;2023-04-10T13:08:26;100284.91;;;18.00;31.20
33075;BME280;19433;51.292;6.868;2023-04-10T13:10:51;100285.75;;;18.22;31.44
33075;BME280;19433;51.292;6.868;2023-04-10T13:13:17;100273.34;;;18.35;31.28
33075;BME280;19433;51.292;6.868;2023-04-10T13:15:42;100272.63;;;18.23;30.65
33075;BME280;19433;51.292;6.868;2023-04-10T13:18:08;100276.00;;;18.03;31.13
33075;BME280;19433;51.292;6.868;2023-04-10T13:20:38;100273.28;;;18.30;32.04
33075;BME280;19433;51.292;6.868;2023-04-10T13:23:04;100268.00;;;18.12;30.97